EZY23C EGKK-EGPH
Flight info
| Callsign | EZY23C |
|---|---|
| Flight time | 0h 59m |
| Altitude | 38000 |
| Route | LAM L10 BPK UN601 RIBEL DCT INPIP |
| Aircraft | A20N/M-SDE2E3FGHIRWXY/LB1 |
Departure
| Time | 2026-04-26 17:58 |
|---|---|
| Airport | London Gatwick Airport (EGKK) |
Arrival
| Time | 2026-04-26 18:57 |
|---|---|
| Airport | Edinburgh Airport (EGPH) |
| Time | Latitude | Longitude | Altitude | Speed | Heading |
|---|---|---|---|---|---|
| 2026-04-26 17:38 | 51.15836 | -0.17635 | 211 ft | 0 kts | 347° |
| 2026-04-26 17:42 | 51.15831 | -0.17633 | 212 ft | 1 kts | 344° |
| 2026-04-26 17:43 | 51.15824 | -0.17630 | 209 ft | 1 kts | 346° |
| 2026-04-26 17:43 | 51.15816 | -0.17627 | 212 ft | 1 kts | 346° |
| 2026-04-26 17:43 | 51.15809 | -0.17624 | 208 ft | 1 kts | 347° |
| 2026-04-26 17:43 | 51.15792 | -0.17618 | 206 ft | 3 kts | 347° |
| 2026-04-26 17:44 | 51.15773 | -0.17611 | 216 ft | 3 kts | 348° |
| 2026-04-26 17:44 | 51.15754 | -0.17611 | 215 ft | 3 kts | 42° |
| 2026-04-26 17:44 | 51.15744 | -0.17636 | 213 ft | 3 kts | 77° |
| 2026-04-26 17:44 | 51.15744 | -0.17637 | 213 ft | 0 kts | 77° |
| 2026-04-26 17:48 | 51.15744 | -0.17636 | 213 ft | 0 kts | 77° |
| 2026-04-26 17:49 | 51.15748 | -0.17610 | 213 ft | 8 kts | 77° |
| 2026-04-26 17:49 | 51.15737 | -0.17511 | 217 ft | 11 kts | 140° |
| 2026-04-26 17:49 | 51.15669 | -0.17483 | 207 ft | 12 kts | 166° |
| 2026-04-26 17:49 | 51.15576 | -0.17449 | 214 ft | 15 kts | 168° |
| 2026-04-26 17:50 | 51.15461 | -0.17410 | 204 ft | 18 kts | 168° |
| 2026-04-26 17:50 | 51.15331 | -0.17365 | 204 ft | 10 kts | 168° |
| 2026-04-26 17:50 | 51.15319 | -0.17366 | 205 ft | 3 kts | 188° |
| 2026-04-26 17:50 | 51.15297 | -0.17420 | 207 ft | 9 kts | 269° |
| 2026-04-26 17:51 | 51.15286 | -0.17573 | 211 ft | 18 kts | 258° |
| 2026-04-26 17:51 | 51.15256 | -0.17795 | 213 ft | 22 kts | 257° |
| 2026-04-26 17:51 | 51.15227 | -0.18000 | 216 ft | 17 kts | 257° |
| 2026-04-26 17:51 | 51.15197 | -0.18213 | 209 ft | 22 kts | 257° |
| 2026-04-26 17:52 | 51.15178 | -0.18399 | 207 ft | 16 kts | 259° |
| 2026-04-26 17:52 | 51.15152 | -0.18588 | 207 ft | 19 kts | 257° |
| 2026-04-26 17:52 | 51.15120 | -0.18809 | 210 ft | 22 kts | 257° |
| 2026-04-26 17:52 | 51.15085 | -0.19055 | 213 ft | 24 kts | 257° |
| 2026-04-26 17:53 | 51.15053 | -0.19290 | 212 ft | 21 kts | 258° |
| 2026-04-26 17:53 | 51.15021 | -0.19529 | 205 ft | 23 kts | 257° |
| 2026-04-26 17:53 | 51.14984 | -0.19792 | 212 ft | 25 kts | 257° |
| 2026-04-26 17:54 | 51.14904 | -0.20385 | 204 ft | 29 kts | 258° |
| 2026-04-26 17:54 | 51.14860 | -0.20704 | 204 ft | 28 kts | 258° |
| 2026-04-26 17:54 | 51.14818 | -0.21014 | 205 ft | 29 kts | 257° |
| 2026-04-26 17:54 | 51.14770 | -0.21278 | 205 ft | 23 kts | 257° |
| 2026-04-26 17:55 | 51.14727 | -0.21407 | 213 ft | 9 kts | 195° |
| 2026-04-26 17:55 | 51.14661 | -0.21369 | 211 ft | 12 kts | 141° |
| 2026-04-26 17:55 | 51.14584 | -0.21324 | 205 ft | 13 kts | 162° |
| 2026-04-26 17:55 | 51.14518 | -0.21216 | 214 ft | 15 kts | 104° |
| 2026-04-26 17:56 | 51.14532 | -0.21076 | 209 ft | 0 kts | 77° |
| 2026-04-26 17:57 | 51.14532 | -0.21075 | 209 ft | 1 kts | 77° |
| 2026-04-26 17:57 | 51.14545 | -0.20979 | 209 ft | 30 kts | 77° |
| 2026-04-26 17:57 | 51.14650 | -0.20247 | 214 ft | 103 kts | 77° |
| 2026-04-26 17:58 | 51.15282 | -0.15608 | 1553 ft | 142 kts | 77° |
| 2026-04-26 17:59 | 51.15774 | -0.12377 | 2427 ft | 167 kts | 75° |
| 2026-04-26 17:59 | 51.16105 | -0.10487 | 2869 ft | 188 kts | 75° |
| 2026-04-26 17:59 | 51.16461 | -0.08433 | 3558 ft | 202 kts | 74° |
| 2026-04-26 17:59 | 51.17031 | -0.06225 | 4089 ft | 230 kts | 62° |
| 2026-04-26 18:00 | 51.17830 | -0.03822 | 4509 ft | 260 kts | 61° |
| 2026-04-26 18:00 | 51.18843 | -0.01360 | 4608 ft | 268 kts | 51° |
| 2026-04-26 18:00 | 51.20014 | 0.00966 | 4681 ft | 269 kts | 50° |
| 2026-04-26 18:00 | 51.21211 | 0.03221 | 4730 ft | 270 kts | 49° |
| 2026-04-26 18:01 | 51.22415 | 0.05515 | 4731 ft | 270 kts | 50° |
| 2026-04-26 18:01 | 51.23598 | 0.07852 | 4773 ft | 271 kts | 51° |
| 2026-04-26 18:01 | 51.24663 | 0.10353 | 5200 ft | 275 kts | 63° |
| 2026-04-26 18:01 | 51.25283 | 0.13238 | 6273 ft | 274 kts | 78° |
| 2026-04-26 18:02 | 51.25629 | 0.16238 | 7404 ft | 277 kts | 79° |
| 2026-04-26 18:02 | 51.25869 | 0.18252 | 8089 ft | 280 kts | 79° |
| 2026-04-26 18:02 | 51.26368 | 0.22390 | 9465 ft | 286 kts | 79° |
| 2026-04-26 18:02 | 51.26745 | 0.25539 | 10464 ft | 291 kts | 79° |
| 2026-04-26 18:03 | 51.27126 | 0.28744 | 11440 ft | 295 kts | 79° |
| 2026-04-26 18:03 | 51.27718 | 0.31846 | 12347 ft | 299 kts | 61° |
| 2026-04-26 18:03 | 51.29055 | 0.34391 | 13251 ft | 303 kts | 36° |
| 2026-04-26 18:03 | 51.30952 | 0.35842 | 14110 ft | 306 kts | 12° |
| 2026-04-26 18:04 | 51.33077 | 0.35929 | 14941 ft | 309 kts | 348° |
| 2026-04-26 18:04 | 51.35124 | 0.34824 | 15751 ft | 313 kts | 336° |
| 2026-04-26 18:04 | 51.37132 | 0.33394 | 16570 ft | 317 kts | 335° |
| 2026-04-26 18:05 | 51.41215 | 0.30483 | 18144 ft | 325 kts | 336° |
| 2026-04-26 18:05 | 51.43313 | 0.29070 | 18885 ft | 329 kts | 337° |
| 2026-04-26 18:05 | 51.45440 | 0.27670 | 19579 ft | 333 kts | 337° |
| 2026-04-26 18:05 | 51.47598 | 0.26266 | 19894 ft | 336 kts | 338° |
| 2026-04-26 18:06 | 51.49771 | 0.24857 | 19988 ft | 336 kts | 338° |
| 2026-04-26 18:06 | 51.51913 | 0.23465 | 20000 ft | 336 kts | 338° |
| 2026-04-26 18:06 | 51.54081 | 0.22053 | 20000 ft | 336 kts | 338° |
| 2026-04-26 18:06 | 51.56246 | 0.20640 | 20033 ft | 337 kts | 337° |
| 2026-04-26 18:07 | 51.58434 | 0.19210 | 20473 ft | 341 kts | 337° |
| 2026-04-26 18:07 | 51.60636 | 0.17769 | 21259 ft | 341 kts | 337° |
| 2026-04-26 18:07 | 51.62823 | 0.16246 | 21912 ft | 345 kts | 331° |
| 2026-04-26 18:07 | 51.64157 | 0.14849 | 22325 ft | 347 kts | 321° |
| 2026-04-26 18:08 | 51.66317 | 0.10976 | 23150 ft | 351 kts | 302° |
| 2026-04-26 18:08 | 51.67658 | 0.07607 | 23449 ft | 365 kts | 302° |
| 2026-04-26 18:08 | 51.69063 | 0.04089 | 23605 ft | 382 kts | 302° |
| 2026-04-26 18:08 | 51.70516 | 0.00460 | 23762 ft | 398 kts | 302° |
| 2026-04-26 18:09 | 51.72047 | -0.03362 | 24009 ft | 410 kts | 302° |
| 2026-04-26 18:09 | 51.73666 | -0.07187 | 24541 ft | 414 kts | 308° |
| 2026-04-26 18:09 | 51.75629 | -0.10601 | 25081 ft | 417 kts | 317° |
| 2026-04-26 18:09 | 51.77933 | -0.13475 | 25601 ft | 421 kts | 327° |
| 2026-04-26 18:10 | 51.80461 | -0.15895 | 26098 ft | 424 kts | 329° |
| 2026-04-26 18:10 | 51.83024 | -0.18324 | 26578 ft | 428 kts | 329° |
| 2026-04-26 18:10 | 51.85606 | -0.20786 | 27041 ft | 431 kts | 329° |
| 2026-04-26 18:10 | 51.88197 | -0.23263 | 27491 ft | 434 kts | 329° |
| 2026-04-26 18:11 | 51.90805 | -0.25759 | 27936 ft | 437 kts | 329° |
| 2026-04-26 18:11 | 51.93427 | -0.28271 | 28343 ft | 439 kts | 329° |
| 2026-04-26 18:11 | 51.96067 | -0.30803 | 28741 ft | 442 kts | 329° |
| 2026-04-26 18:11 | 51.98722 | -0.33351 | 29126 ft | 445 kts | 329° |
| 2026-04-26 18:12 | 52.01361 | -0.35889 | 29487 ft | 447 kts | 329° |
| 2026-04-26 18:12 | 52.04044 | -0.38471 | 29848 ft | 450 kts | 329° |
| 2026-04-26 18:12 | 52.06749 | -0.41080 | 30201 ft | 453 kts | 329° |
| 2026-04-26 18:12 | 52.09468 | -0.43705 | 30564 ft | 455 kts | 329° |
| 2026-04-26 18:13 | 52.12200 | -0.46344 | 30920 ft | 457 kts | 329° |
| 2026-04-26 18:13 | 52.14946 | -0.49000 | 31300 ft | 459 kts | 329° |
| 2026-04-26 18:13 | 52.17692 | -0.51659 | 31743 ft | 458 kts | 329° |
| 2026-04-26 18:13 | 52.18593 | -0.52532 | 31891 ft | 458 kts | 329° |
| 2026-04-26 18:14 | 52.23137 | -0.56944 | 32634 ft | 456 kts | 329° |
| 2026-04-26 18:14 | 52.25862 | -0.59599 | 33034 ft | 456 kts | 329° |
| 2026-04-26 18:14 | 52.28587 | -0.62259 | 33457 ft | 455 kts | 329° |
| 2026-04-26 18:14 | 52.31304 | -0.64916 | 33863 ft | 454 kts | 329° |
| 2026-04-26 18:15 | 52.34014 | -0.67569 | 34244 ft | 453 kts | 329° |
| 2026-04-26 18:15 | 52.36718 | -0.70221 | 34618 ft | 452 kts | 329° |
| 2026-04-26 18:15 | 52.38503 | -0.71971 | 34854 ft | 452 kts | 329° |
| 2026-04-26 18:15 | 52.41206 | -0.74623 | 35197 ft | 451 kts | 329° |
| 2026-04-26 18:16 | 52.43901 | -0.77270 | 35527 ft | 451 kts | 329° |
| 2026-04-26 18:16 | 52.49279 | -0.82563 | 36161 ft | 449 kts | 329° |
| 2026-04-26 18:16 | 52.51929 | -0.85178 | 36447 ft | 449 kts | 329° |
| 2026-04-26 18:17 | 52.54620 | -0.87836 | 36720 ft | 449 kts | 328° |
| 2026-04-26 18:17 | 52.57302 | -0.90490 | 36963 ft | 449 kts | 328° |
| 2026-04-26 18:17 | 52.59980 | -0.93144 | 37201 ft | 450 kts | 328° |
| 2026-04-26 18:17 | 52.62664 | -0.95808 | 37436 ft | 450 kts | 328° |
| 2026-04-26 18:18 | 52.65343 | -0.98472 | 37685 ft | 449 kts | 328° |
| 2026-04-26 18:18 | 52.67983 | -1.01101 | 37915 ft | 449 kts | 328° |
| 2026-04-26 18:18 | 52.73328 | -1.06437 | 38000 ft | 447 kts | 328° |
| 2026-04-26 18:19 | 52.78653 | -1.11768 | 38000 ft | 448 kts | 328° |
| 2026-04-26 18:19 | 52.83980 | -1.17116 | 38000 ft | 447 kts | 328° |
| 2026-04-26 18:20 | 52.89303 | -1.22476 | 38000 ft | 447 kts | 328° |
| 2026-04-26 18:20 | 52.93722 | -1.26936 | 37999 ft | 447 kts | 328° |
| 2026-04-26 18:21 | 52.99904 | -1.33196 | 37999 ft | 448 kts | 328° |
| 2026-04-26 18:21 | 53.05222 | -1.38594 | 37999 ft | 448 kts | 328° |
| 2026-04-26 18:22 | 53.10544 | -1.44012 | 38001 ft | 448 kts | 328° |
| 2026-04-26 18:22 | 53.15855 | -1.49436 | 37996 ft | 448 kts | 328° |
| 2026-04-26 18:23 | 53.21134 | -1.54842 | 37993 ft | 448 kts | 328° |
| 2026-04-26 18:23 | 53.26444 | -1.60296 | 37996 ft | 448 kts | 328° |
| 2026-04-26 18:24 | 53.31763 | -1.65777 | 37998 ft | 448 kts | 328° |
| 2026-04-26 18:24 | 53.37081 | -1.71279 | 38000 ft | 449 kts | 328° |
| 2026-04-26 18:25 | 53.42395 | -1.76793 | 37996 ft | 449 kts | 328° |
| 2026-04-26 18:25 | 53.47678 | -1.82290 | 37987 ft | 449 kts | 328° |
| 2026-04-26 18:26 | 53.52988 | -1.87827 | 37991 ft | 449 kts | 328° |
| 2026-04-26 18:26 | 53.58297 | -1.93377 | 37997 ft | 449 kts | 328° |
| 2026-04-26 18:27 | 53.63579 | -1.98921 | 37997 ft | 449 kts | 328° |
| 2026-04-26 18:27 | 53.68886 | -2.04512 | 38000 ft | 450 kts | 328° |
| 2026-04-26 18:28 | 53.74260 | -2.09945 | 38002 ft | 450 kts | 333° |
| 2026-04-26 18:28 | 53.80014 | -2.14097 | 38000 ft | 450 kts | 338° |
| 2026-04-26 18:29 | 53.85827 | -2.18089 | 38010 ft | 450 kts | 338° |
| 2026-04-26 18:29 | 53.91604 | -2.22067 | 38008 ft | 450 kts | 338° |
| 2026-04-26 18:30 | 53.97414 | -2.26064 | 38003 ft | 450 kts | 338° |
| 2026-04-26 18:30 | 54.03201 | -2.30052 | 38000 ft | 448 kts | 338° |
| 2026-04-26 18:31 | 54.08990 | -2.34050 | 38000 ft | 449 kts | 338° |
| 2026-04-26 18:31 | 54.14776 | -2.38057 | 38000 ft | 450 kts | 338° |
| 2026-04-26 18:32 | 54.20552 | -2.42070 | 37960 ft | 448 kts | 338° |
| 2026-04-26 18:32 | 54.23439 | -2.44080 | 37599 ft | 446 kts | 338° |
| 2026-04-26 18:32 | 54.26305 | -2.46079 | 37008 ft | 445 kts | 338° |
| 2026-04-26 18:33 | 54.29178 | -2.48085 | 36397 ft | 443 kts | 338° |
| 2026-04-26 18:33 | 54.32029 | -2.50080 | 35707 ft | 443 kts | 338° |
| 2026-04-26 18:33 | 54.34886 | -2.52082 | 34911 ft | 445 kts | 338° |
| 2026-04-26 18:33 | 54.37773 | -2.54107 | 34072 ft | 448 kts | 338° |
| 2026-04-26 18:34 | 54.40666 | -2.56140 | 33242 ft | 450 kts | 337° |
| 2026-04-26 18:34 | 54.43528 | -2.58155 | 32462 ft | 450 kts | 337° |
| 2026-04-26 18:34 | 54.46424 | -2.60196 | 31649 ft | 450 kts | 337° |
| 2026-04-26 18:34 | 54.49332 | -2.62249 | 30763 ft | 452 kts | 337° |
| 2026-04-26 18:35 | 54.52245 | -2.64308 | 30097 ft | 451 kts | 337° |
| 2026-04-26 18:35 | 54.55140 | -2.66358 | 29435 ft | 448 kts | 337° |
| 2026-04-26 18:35 | 54.58020 | -2.68400 | 28799 ft | 443 kts | 337° |
| 2026-04-26 18:35 | 54.60827 | -2.70394 | 28177 ft | 439 kts | 337° |
| 2026-04-26 18:36 | 54.63634 | -2.72391 | 27543 ft | 434 kts | 337° |
| 2026-04-26 18:36 | 54.66418 | -2.74375 | 26914 ft | 430 kts | 337° |
| 2026-04-26 18:36 | 54.69170 | -2.76338 | 26317 ft | 425 kts | 337° |
| 2026-04-26 18:36 | 54.71883 | -2.78277 | 26073 ft | 420 kts | 337° |
| 2026-04-26 18:37 | 54.74579 | -2.80206 | 25877 ft | 419 kts | 337° |
| 2026-04-26 18:37 | 54.77275 | -2.82139 | 25354 ft | 418 kts | 337° |
| 2026-04-26 18:37 | 54.79957 | -2.84063 | 24787 ft | 416 kts | 337° |
| 2026-04-26 18:37 | 54.82620 | -2.85977 | 24177 ft | 412 kts | 337° |
| 2026-04-26 18:38 | 54.85256 | -2.87874 | 23554 ft | 408 kts | 337° |
| 2026-04-26 18:38 | 54.87866 | -2.89754 | 22940 ft | 404 kts | 337° |
| 2026-04-26 18:38 | 54.90414 | -2.91593 | 22336 ft | 400 kts | 337° |
| 2026-04-26 18:38 | 54.92980 | -2.93448 | 21722 ft | 396 kts | 337° |
| 2026-04-26 18:39 | 54.95516 | -2.95283 | 21103 ft | 393 kts | 337° |
| 2026-04-26 18:39 | 54.98025 | -2.97103 | 20503 ft | 389 kts | 337° |
| 2026-04-26 18:39 | 55.00504 | -2.98902 | 20115 ft | 382 kts | 337° |
| 2026-04-26 18:39 | 55.02970 | -3.00694 | 20007 ft | 387 kts | 337° |
| 2026-04-26 18:40 | 55.05453 | -3.02501 | 19893 ft | 385 kts | 337° |
| 2026-04-26 18:40 | 55.07920 | -3.04298 | 19501 ft | 383 kts | 337° |
| 2026-04-26 18:40 | 55.10371 | -3.06087 | 18959 ft | 380 kts | 337° |
| 2026-04-26 18:40 | 55.12772 | -3.07840 | 18362 ft | 377 kts | 337° |
| 2026-04-26 18:41 | 55.15183 | -3.09604 | 17756 ft | 374 kts | 337° |
| 2026-04-26 18:41 | 55.17584 | -3.11363 | 17158 ft | 372 kts | 337° |
| 2026-04-26 18:41 | 55.19958 | -3.13104 | 16569 ft | 368 kts | 337° |
| 2026-04-26 18:41 | 55.22307 | -3.14829 | 16009 ft | 364 kts | 337° |
| 2026-04-26 18:42 | 55.24640 | -3.16545 | 15422 ft | 361 kts | 337° |
| 2026-04-26 18:42 | 55.26938 | -3.18237 | 15055 ft | 355 kts | 337° |
| 2026-04-26 18:42 | 55.29188 | -3.19896 | 14698 ft | 347 kts | 337° |
| 2026-04-26 18:42 | 55.31389 | -3.21521 | 14345 ft | 339 kts | 337° |
| 2026-04-26 18:43 | 55.33545 | -3.23114 | 14000 ft | 332 kts | 337° |
| 2026-04-26 18:43 | 55.35649 | -3.24670 | 13644 ft | 325 kts | 337° |
| 2026-04-26 18:43 | 55.37719 | -3.26204 | 13291 ft | 319 kts | 337° |
| 2026-04-26 18:43 | 55.39717 | -3.27686 | 12953 ft | 313 kts | 337° |
| 2026-04-26 18:44 | 55.41709 | -3.29164 | 12598 ft | 308 kts | 336° |
| 2026-04-26 18:44 | 55.43670 | -3.30621 | 12244 ft | 303 kts | 336° |
| 2026-04-26 18:44 | 55.45600 | -3.32058 | 11894 ft | 299 kts | 336° |
| 2026-04-26 18:44 | 55.47504 | -3.33476 | 11544 ft | 295 kts | 336° |
| 2026-04-26 18:45 | 55.49364 | -3.34946 | 11187 ft | 291 kts | 331° |
| 2026-04-26 18:45 | 55.51041 | -3.36909 | 10848 ft | 286 kts | 320° |
| 2026-04-26 18:45 | 55.52548 | -3.39180 | 10490 ft | 283 kts | 319° |
| 2026-04-26 18:45 | 55.54027 | -3.41385 | 10137 ft | 280 kts | 320° |
| 2026-04-26 18:46 | 55.55512 | -3.43585 | 9795 ft | 277 kts | 320° |
| 2026-04-26 18:46 | 55.56983 | -3.45763 | 9442 ft | 274 kts | 320° |
| 2026-04-26 18:46 | 55.58440 | -3.47924 | 9088 ft | 272 kts | 320° |
| 2026-04-26 18:46 | 55.59881 | -3.50066 | 8737 ft | 269 kts | 319° |
| 2026-04-26 18:47 | 55.61302 | -3.52180 | 8495 ft | 262 kts | 319° |
| 2026-04-26 18:47 | 55.62659 | -3.54203 | 8340 ft | 245 kts | 319° |
| 2026-04-26 18:47 | 55.63940 | -3.56114 | 7995 ft | 239 kts | 319° |
| 2026-04-26 18:47 | 55.65206 | -3.58005 | 7413 ft | 243 kts | 319° |
| 2026-04-26 18:48 | 55.66513 | -3.59961 | 6782 ft | 249 kts | 319° |
| 2026-04-26 18:48 | 55.67846 | -3.61957 | 6171 ft | 253 kts | 319° |
| 2026-04-26 18:48 | 55.69199 | -3.63985 | 5547 ft | 257 kts | 319° |
| 2026-04-26 18:48 | 55.70573 | -3.66044 | 4918 ft | 260 kts | 319° |
| 2026-04-26 18:49 | 55.71958 | -3.68123 | 4292 ft | 261 kts | 319° |
| 2026-04-26 18:49 | 55.73336 | -3.70193 | 3895 ft | 253 kts | 319° |
| 2026-04-26 18:49 | 55.74634 | -3.72145 | 3775 ft | 235 kts | 319° |
| 2026-04-26 18:49 | 55.75837 | -3.73954 | 3753 ft | 221 kts | 319° |
| 2026-04-26 18:50 | 55.77024 | -3.75731 | 3753 ft | 223 kts | 322° |
| 2026-04-26 18:50 | 55.78431 | -3.76777 | 3762 ft | 223 kts | 355° |
| 2026-04-26 18:50 | 55.79966 | -3.76494 | 3755 ft | 224 kts | 17° |
| 2026-04-26 18:50 | 55.81339 | -3.75274 | 3753 ft | 224 kts | 35° |
| 2026-04-26 18:51 | 55.82502 | -3.73386 | 3763 ft | 224 kts | 49° |
| 2026-04-26 18:51 | 55.83413 | -3.71264 | 3753 ft | 211 kts | 56° |
| 2026-04-26 18:51 | 55.84174 | -3.69137 | 3772 ft | 195 kts | 58° |
| 2026-04-26 18:51 | 55.84846 | -3.67168 | 3721 ft | 178 kts | 58° |
| 2026-04-26 18:52 | 55.85468 | -3.65341 | 3522 ft | 166 kts | 58° |
| 2026-04-26 18:52 | 55.86046 | -3.63645 | 3311 ft | 155 kts | 58° |
| 2026-04-26 18:52 | 55.86579 | -3.62072 | 3112 ft | 145 kts | 58° |
| 2026-04-26 18:52 | 55.87076 | -3.60602 | 2972 ft | 135 kts | 59° |
| 2026-04-26 18:53 | 55.87559 | -3.59167 | 2817 ft | 135 kts | 58° |
| 2026-04-26 18:53 | 55.88047 | -3.57748 | 2638 ft | 134 kts | 58° |
| 2026-04-26 18:53 | 55.88537 | -3.56334 | 2426 ft | 133 kts | 58° |
| 2026-04-26 18:53 | 55.89018 | -3.54914 | 2211 ft | 133 kts | 59° |
| 2026-04-26 18:54 | 55.89491 | -3.53505 | 2011 ft | 133 kts | 58° |
| 2026-04-26 18:54 | 55.89974 | -3.52106 | 1814 ft | 132 kts | 58° |
| 2026-04-26 18:54 | 55.90460 | -3.50714 | 1609 ft | 132 kts | 58° |
| 2026-04-26 18:54 | 55.90927 | -3.49308 | 1375 ft | 131 kts | 60° |
| 2026-04-26 18:55 | 55.91377 | -3.47926 | 1166 ft | 131 kts | 59° |
| 2026-04-26 18:55 | 55.91841 | -3.46539 | 999 ft | 130 kts | 58° |
| 2026-04-26 18:55 | 55.92314 | -3.45154 | 838 ft | 130 kts | 58° |
| 2026-04-26 18:55 | 55.92783 | -3.43777 | 731 ft | 130 kts | 58° |
| 2026-04-26 18:56 | 55.93245 | -3.42392 | 584 ft | 129 kts | 59° |
| 2026-04-26 18:56 | 55.93708 | -3.41016 | 436 ft | 129 kts | 58° |
| 2026-04-26 18:56 | 55.94179 | -3.39655 | 267 ft | 129 kts | 58° |
| 2026-04-26 18:56 | 55.94639 | -3.38313 | 122 ft | 122 kts | 58° |
| 2026-04-26 18:57 | 55.94969 | -3.37337 | 107 ft | 56 kts | 59° |
| 2026-04-26 18:57 | 55.95034 | -3.37146 | 106 ft | 51 kts | 59° |
| 2026-04-26 18:57 | 55.95249 | -3.36491 | 102 ft | 22 kts | 77° |
| 2026-04-26 18:57 | 55.95228 | -3.36386 | 101 ft | 9 kts | 140° |
| 2026-04-26 18:58 | 55.95181 | -3.36335 | 103 ft | 0 kts | 149° |
| 2026-04-26 18:58 | 55.95172 | -3.36325 | 103 ft | 5 kts | 149° |
| 2026-04-26 18:59 | 55.95142 | -3.36261 | 104 ft | 9 kts | 112° |
| 2026-04-26 18:59 | 55.95117 | -3.36126 | 104 ft | 13 kts | 108° |
| 2026-04-26 18:59 | 55.95083 | -3.35956 | 104 ft | 16 kts | 115° |
| 2026-04-26 18:59 | 55.95007 | -3.35840 | 106 ft | 15 kts | 193° |
| 2026-04-26 19:00 | 55.94926 | -3.35834 | 107 ft | 7 kts | 123° |
| 2026-04-26 19:00 | 55.94896 | -3.35741 | 107 ft | 11 kts | 118° |
| 2026-04-26 19:00 | 55.94845 | -3.35645 | 107 ft | 11 kts | 178° |
| 2026-04-26 19:00 | 55.94807 | -3.35673 | 106 ft | 0 kts | 210° |
| 2026-04-26 19:01 | 55.94802 | -3.35678 | 106 ft | 0 kts | 210° |